createdAt,value
2019-04-16T00:01:45.327Z,23.37
2019-04-16T00:04:48.287Z,21.40
2019-04-16T00:07:45.385Z,22.20
2019-04-16T00:10:42.458Z,19.50
2019-04-16T00:13:33.708Z,22.40
2019-04-16T00:16:06.079Z,20.10
2019-04-16T00:18:35.361Z,25.93
2019-04-16T00:21:23.978Z,23.40
2019-04-16T00:24:19.236Z,22.40
2019-04-16T00:26:51.071Z,24.90
2019-04-16T00:29:20.377Z,23.30
2019-04-16T00:32:09.075Z,23.97
2019-04-16T00:34:38.403Z,25.80
2019-04-16T00:37:07.706Z,22.33
2019-04-16T00:39:36.975Z,20.87
2019-04-16T00:42:06.283Z,24.60
2019-04-16T00:44:35.559Z,22.70
2019-04-16T00:47:04.916Z,21.77
2019-04-16T00:49:34.279Z,22.40
2019-04-16T00:52:06.772Z,20.30
2019-04-16T00:54:34.620Z,25.37
2019-04-16T00:57:04.048Z,25.43
2019-04-16T00:59:33.629Z,24.17
2019-04-16T01:02:02.926Z,21.90
2019-04-16T01:04:32.207Z,24.20
2019-04-16T01:07:01.506Z,26.57
2019-04-16T01:09:30.918Z,22.90
2019-04-16T01:12:00.338Z,21.03
2019-04-16T01:14:31.443Z,23.60
2019-04-16T01:17:03.849Z,21.53
2019-04-16T01:19:31.880Z,23.57
2019-04-16T01:22:01.223Z,27.73
2019-04-16T01:24:30.598Z,26.37
2019-04-16T01:26:59.929Z,25.53
2019-04-16T01:29:33.621Z,25.87
2019-04-16T01:32:22.261Z,23.73
2019-04-16T01:35:09.270Z,24.03
2019-04-16T01:38:15.868Z,23.33
2019-04-16T01:40:59.356Z,25.50
2019-04-16T01:43:28.716Z,26.50
2019-04-16T01:46:00.870Z,21.70
2019-04-16T01:48:29.063Z,23.73
2019-04-16T01:50:58.383Z,28.37
2019-04-16T01:53:27.702Z,26.40
2019-04-16T01:55:57.710Z,22.70
2019-04-16T01:58:27.172Z,24.07
2019-04-16T02:00:56.690Z,22.93
2019-04-16T02:03:26.071Z,22.93
2019-04-16T02:05:55.604Z,22.70
2019-04-16T02:08:25.052Z,26.47
2019-04-16T02:10:54.535Z,27.20
2019-04-16T02:13:23.872Z,28.27
2019-04-16T02:15:53.533Z,25.53
2019-04-16T02:18:23.756Z,29.70
2019-04-16T02:20:53.070Z,24.30
2019-04-16T02:23:22.458Z,23.23
2019-04-16T02:25:52.015Z,24.90
2019-04-16T02:28:21.904Z,27.00
2019-04-16T02:30:51.484Z,27.37
2019-04-16T02:33:20.867Z,23.43
2019-04-16T02:35:50.218Z,29.27
2019-04-16T02:38:19.591Z,24.70
2019-04-16T02:40:53.056Z,28.57
2019-04-16T02:43:19.948Z,32.13
2019-04-16T02:45:49.418Z,25.93
2019-04-16T02:48:18.734Z,26.03
2019-04-16T02:50:51.262Z,23.03
2019-04-16T02:53:58.726Z,24.40
2019-04-16T02:56:54.124Z,23.30
2019-04-16T02:59:27.209Z,24.57
2019-04-16T03:02:15.483Z,31.47
2019-04-16T03:05:06.291Z,26.93
2019-04-16T03:07:35.645Z,23.00
2019-04-16T03:10:05.886Z,25.43
2019-04-16T03:12:35.445Z,28.27
2019-04-16T03:15:04.758Z,35.00
2019-04-16T03:17:39.548Z,26.27
2019-04-16T03:20:09.994Z,26.87
2019-04-16T03:22:39.445Z,28.97
2019-04-16T03:25:12.336Z,29.13
2019-04-16T03:27:39.953Z,30.30
2019-04-16T03:30:10.382Z,24.43
2019-04-16T03:32:53.353Z,30.33
2019-04-16T03:35:25.787Z,33.37
2019-04-16T03:37:53.733Z,31.00
2019-04-16T03:40:25.615Z,27.80
2019-04-16T03:42:58.874Z,28.83
2019-04-16T03:45:25.275Z,25.23
2019-04-16T03:47:54.573Z,52.10
2019-04-16T03:50:23.942Z,32.63
2019-04-16T03:52:53.290Z,26.03
2019-04-16T03:55:25.644Z,34.20
2019-04-16T03:58:12.570Z,26.53
2019-04-16T04:00:44.072Z,29.83
2019-04-16T04:03:12.782Z,31.20
2019-04-16T04:05:43.572Z,29.13
2019-04-16T04:08:16.162Z,30.50
2019-04-16T04:10:43.694Z,25.17
2019-04-16T04:13:17.253Z,43.50
2019-04-16T04:15:43.870Z,30.27
2019-04-16T04:18:13.205Z,23.97
2019-04-16T04:20:42.446Z,28.53
2019-04-16T04:23:11.729Z,25.37
2019-04-16T04:25:40.973Z,64.10
2019-04-16T04:28:10.223Z,26.37
2019-04-16T04:30:39.462Z,26.13
2019-04-16T04:33:10.365Z,31.13
2019-04-16T04:35:39.829Z,29.33
2019-04-16T04:38:09.078Z,28.27
2019-04-16T04:40:44.576Z,29.77
2019-04-16T04:43:09.318Z,27.23
2019-04-16T04:45:40.909Z,32.90
2019-04-16T04:48:11.466Z,30.13
2019-04-16T04:50:40.425Z,27.80
2019-04-16T04:53:09.687Z,30.13
2019-04-16T04:55:38.939Z,30.97
2019-04-16T04:58:08.318Z,29.00
2019-04-16T05:00:40.499Z,30.10
2019-04-16T05:03:12.394Z,23.93
2019-04-16T05:05:53.317Z,29.43
2019-04-16T05:08:22.990Z,27.60
2019-04-16T05:10:58.869Z,29.50
2019-04-16T05:13:24.924Z,27.10
2019-04-16T05:15:54.104Z,33.23
2019-04-16T05:18:23.289Z,30.80
2019-04-16T05:20:52.522Z,25.13
2019-04-16T05:23:24.859Z,34.40
2019-04-16T05:25:52.594Z,31.07
2019-04-16T05:28:21.837Z,26.80
2019-04-16T05:30:52.341Z,27.00
2019-04-16T05:33:21.994Z,31.40
2019-04-16T05:35:51.269Z,29.57
2019-04-16T05:38:23.451Z,30.63
2019-04-16T05:40:51.406Z,29.03
2019-04-16T05:43:22.615Z,27.53
2019-04-16T05:45:51.622Z,31.13
2019-04-16T05:48:21.865Z,28.77
2019-04-16T05:50:51.876Z,32.40
2019-04-16T05:53:21.093Z,26.90
2019-04-16T05:56:15.124Z,31.67
2019-04-16T05:58:44.357Z,28.90
2019-04-16T06:01:37.275Z,28.57
2019-04-16T06:04:06.536Z,29.63
2019-04-16T06:06:35.774Z,28.50
2019-04-16T06:09:11.886Z,30.63
2019-04-16T06:11:38.901Z,27.33
2019-04-16T06:14:36.163Z,27.63
2019-04-16T06:17:32.226Z,28.80
2019-04-16T06:20:20.683Z,31.63
2019-04-16T06:23:23.863Z,31.50
2019-04-16T06:25:58.862Z,29.90
2019-04-16T06:28:54.929Z,29.33
2019-04-16T06:31:36.260Z,30.70
2019-04-16T06:34:30.978Z,32.83
2019-04-16T06:37:21.491Z,35.13
2019-04-16T06:40:10.540Z,36.40
2019-04-16T06:43:07.945Z,30.53
2019-04-16T06:45:42.181Z,32.13
2019-04-16T06:48:15.296Z,28.70
2019-04-16T06:51:12.531Z,26.23
2019-04-16T06:53:53.978Z,31.50
2019-04-16T06:56:40.343Z,27.53
2019-04-16T06:59:30.977Z,33.17
2019-04-16T07:02:07.731Z,26.00
2019-04-16T07:04:58.366Z,23.10
2019-04-16T07:07:45.780Z,27.83
2019-04-16T07:10:14.882Z,24.40
2019-04-16T07:12:44.074Z,27.27
2019-04-16T07:15:13.814Z,23.73
2019-04-16T07:17:43.005Z,24.80
2019-04-16T07:20:13.454Z,26.10
2019-04-16T07:22:43.550Z,24.07
2019-04-16T07:25:12.867Z,30.53
2019-04-16T07:28:04.929Z,30.23
2019-04-16T07:30:41.689Z,28.03
2019-04-16T07:33:30.261Z,31.60
2019-04-16T07:36:18.561Z,28.67
2019-04-16T07:39:29.971Z,27.53
2019-04-16T07:42:10.320Z,27.50
2019-04-16T07:45:02.254Z,33.57
2019-04-16T07:47:59.296Z,28.70
2019-04-16T07:51:05.627Z,27.90
2019-04-16T07:53:48.131Z,30.40
2019-04-16T07:56:20.568Z,33.50
2019-04-16T07:58:49.905Z,30.10
2019-04-16T08:01:19.156Z,29.07
2019-04-16T08:03:48.412Z,32.00
2019-04-16T08:06:17.667Z,27.87
2019-04-16T08:08:46.998Z,28.87
2019-04-16T08:11:16.320Z,27.20
2019-04-16T08:13:46.099Z,29.60
2019-04-16T08:16:15.353Z,29.07
2019-04-16T08:18:49.095Z,29.73
2019-04-16T08:21:18.530Z,30.30
2019-04-16T08:23:55.790Z,29.33
2019-04-16T08:26:24.966Z,32.53
2019-04-16T08:28:54.231Z,26.50
2019-04-16T08:31:26.049Z,29.23
2019-04-16T08:33:55.240Z,27.77
2019-04-16T08:36:24.474Z,27.53
2019-04-16T08:38:53.738Z,29.20
2019-04-16T08:41:22.993Z,32.10
2019-04-16T08:43:52.311Z,24.63
2019-04-16T08:46:21.558Z,29.60
2019-04-16T08:48:54.122Z,28.73
2019-04-16T08:51:30.269Z,27.87
2019-04-16T08:53:52.721Z,25.63
2019-04-16T08:56:21.984Z,29.80
2019-04-16T08:58:51.258Z,24.80
2019-04-16T09:01:26.128Z,27.80
2019-04-16T09:03:55.329Z,23.60
2019-04-16T09:06:24.494Z,26.73
2019-04-16T09:09:12.828Z,27.27
2019-04-16T09:11:36.277Z,27.07
2019-04-16T09:14:06.163Z,25.80
2019-04-16T09:16:39.713Z,31.07
2019-04-16T09:19:11.546Z,28.50
2019-04-16T09:21:44.193Z,29.50
2019-04-16T09:24:27.042Z,25.03
2019-04-16T09:27:15.234Z,26.30
2019-04-16T09:30:02.560Z,23.10
2019-04-16T09:32:51.370Z,29.47
2019-04-16T09:35:24.032Z,25.87
2019-04-16T09:38:21.147Z,23.80
2019-04-16T09:41:08.945Z,26.43
2019-04-16T09:43:41.911Z,27.20
2019-04-16T09:46:20.429Z,28.40
2019-04-16T09:48:42.195Z,24.40
2019-04-16T09:51:11.442Z,22.60
2019-04-16T09:53:41.002Z,24.87
2019-04-16T09:56:32.363Z,24.57
2019-04-16T09:59:24.797Z,27.37
2019-04-16T10:01:58.777Z,22.27
2019-04-16T10:04:28.065Z,23.20
2019-04-16T10:06:57.305Z,24.20
2019-04-16T10:09:26.578Z,20.77
2019-04-16T10:11:57.339Z,23.10
2019-04-16T10:14:26.854Z,20.80
2019-04-16T10:16:56.086Z,22.93
2019-04-16T10:19:25.396Z,22.03
2019-04-16T10:21:54.827Z,23.37
2019-04-16T10:24:41.718Z,19.90
2019-04-16T10:27:14.908Z,26.23
2019-04-16T10:29:45.255Z,24.83
2019-04-16T10:32:17.508Z,31.83
2019-04-16T10:34:45.693Z,23.87
2019-04-16T10:37:14.989Z,25.23
2019-04-16T10:40:04.899Z,27.03
2019-04-16T10:42:53.138Z,29.73
2019-04-16T10:45:40.375Z,24.07
2019-04-16T10:48:30.113Z,23.47
2019-04-16T10:51:08.411Z,29.40
2019-04-16T10:54:04.661Z,26.67
2019-04-16T10:56:56.738Z,24.80
2019-04-16T10:59:41.029Z,24.40
2019-04-16T11:02:30.833Z,24.70
2019-04-16T11:05:22.099Z,24.83
2019-04-16T11:07:51.377Z,25.30
2019-04-16T11:10:20.728Z,24.30
2019-04-16T11:12:50.026Z,24.17
2019-04-16T11:15:21.702Z,23.90
2019-04-16T11:17:51.051Z,22.10
2019-04-16T11:20:20.337Z,22.40
2019-04-16T11:22:49.642Z,24.00
2019-04-16T11:25:18.878Z,27.80
2019-04-16T11:27:48.080Z,23.77
2019-04-16T11:30:38.989Z,21.83
2019-04-16T11:33:08.298Z,25.60
2019-04-16T11:35:37.649Z,22.30
2019-04-16T11:38:06.932Z,24.40
2019-04-16T11:40:36.234Z,22.20
2019-04-16T11:43:05.566Z,22.17
2019-04-16T11:45:34.820Z,24.57
2019-04-16T11:48:04.060Z,21.97
2019-04-16T11:50:35.939Z,24.50
2019-04-16T11:53:04.484Z,22.57
2019-04-16T11:55:33.769Z,22.63
2019-04-16T11:58:04.700Z,31.50
2019-04-16T12:00:48.254Z,25.43
2019-04-16T12:03:42.275Z,26.80
2019-04-16T12:06:45.852Z,26.20
2019-04-16T12:09:40.193Z,22.27
2019-04-16T12:12:16.862Z,23.90
2019-04-16T12:15:14.295Z,24.00
2019-04-16T12:18:11.873Z,25.87
2019-04-16T12:20:56.014Z,26.37
2019-04-16T12:23:59.443Z,25.63
2019-04-16T12:26:56.598Z,31.70
2019-04-16T12:29:47.838Z,25.37
2019-04-16T12:32:28.068Z,27.90
2019-04-16T12:35:16.403Z,21.93
2019-04-16T12:38:03.457Z,25.00
2019-04-16T12:40:54.656Z,28.77
2019-04-16T12:43:32.929Z,23.00
2019-04-16T12:46:19.885Z,26.40
2019-04-16T12:49:08.097Z,25.93
2019-04-16T12:51:55.715Z,24.73
2019-04-16T12:54:59.756Z,33.83
2019-04-16T12:58:03.518Z,26.20
2019-04-16T13:00:54.485Z,28.00
2019-04-16T13:03:46.542Z,24.93
2019-04-16T13:06:20.786Z,21.70
2019-04-16T13:08:56.634Z,20.23
2019-04-16T13:11:44.663Z,22.23
2019-04-16T13:14:37.768Z,31.60
2019-04-16T13:17:18.784Z,27.10
2019-04-16T13:20:06.912Z,29.90
2019-04-16T13:22:39.697Z,25.73
2019-04-16T13:25:15.889Z,27.20
2019-04-16T13:27:47.866Z,27.33
2019-04-16T13:30:16.661Z,26.20
2019-04-16T13:32:45.930Z,27.70
2019-04-16T13:35:15.290Z,29.57
2019-04-16T13:37:44.568Z,23.07
2019-04-16T13:40:15.543Z,20.13
2019-04-16T13:42:44.815Z,23.70
2019-04-16T13:45:27.127Z,24.70
2019-04-16T13:47:56.376Z,25.73
2019-04-16T13:50:40.481Z,23.47
2019-04-16T13:53:22.600Z,18.40
2019-04-16T13:56:07.374Z,18.60
2019-04-16T13:58:41.271Z,25.13
2019-04-16T14:01:16.181Z,20.00
2019-04-16T14:03:45.440Z,21.40
2019-04-16T14:06:14.727Z,24.80
2019-04-16T14:08:43.984Z,18.80
2019-04-16T14:11:13.245Z,18.57
2019-04-16T14:13:44.968Z,19.17
2019-04-16T14:16:13.880Z,17.70
2019-04-16T14:18:43.069Z,21.37
2019-04-16T14:21:12.570Z,19.77
2019-04-16T14:23:41.857Z,19.43
2019-04-16T14:26:11.661Z,19.90
2019-04-16T14:28:51.754Z,18.90
2019-04-16T14:31:16.294Z,15.17
2019-04-16T14:33:53.754Z,19.07
2019-04-16T14:36:23.061Z,16.23
2019-04-16T14:38:55.721Z,18.97
2019-04-16T14:41:25.005Z,18.43
2019-04-16T14:44:02.536Z,14.40
2019-04-16T14:46:30.497Z,16.77
2019-04-16T14:48:59.878Z,18.67
2019-04-16T14:51:30.109Z,15.97
2019-04-16T14:54:04.626Z,16.73
2019-04-16T14:56:39.797Z,16.40
2019-04-16T14:59:30.269Z,18.20
2019-04-16T15:01:57.946Z,17.27
2019-04-16T15:04:49.205Z,18.70
2019-04-16T15:07:37.394Z,16.37
2019-04-16T15:10:23.898Z,18.20
2019-04-16T15:13:11.054Z,16.10
2019-04-16T15:15:44.938Z,17.90
2019-04-16T15:18:19.346Z,14.60
2019-04-16T15:21:10.239Z,17.77
2019-04-16T15:24:00.816Z,15.10
2019-04-16T15:26:52.093Z,16.57
2019-04-16T15:29:37.085Z,14.47
2019-04-16T15:32:25.271Z,16.97
2019-04-16T15:34:55.481Z,17.43
2019-04-16T15:37:37.993Z,16.17
2019-04-16T15:40:12.520Z,15.00
2019-04-16T15:42:52.457Z,13.73
2019-04-16T15:45:41.922Z,13.67
2019-04-16T15:48:39.025Z,14.40
2019-04-16T15:51:23.781Z,18.90
2019-04-16T15:54:08.312Z,17.93
2019-04-16T15:56:56.524Z,19.67
2019-04-16T15:59:35.085Z,15.50
2019-04-16T16:02:22.373Z,15.47
2019-04-16T16:05:05.579Z,19.30
2019-04-16T16:07:40.049Z,22.30
2019-04-16T16:10:20.605Z,20.83
2019-04-16T16:12:50.855Z,21.50
2019-04-16T16:15:20.862Z,20.63
2019-04-16T16:17:50.113Z,21.70
2019-04-16T16:20:19.565Z,23.50
2019-04-16T16:22:48.833Z,27.43
2019-04-16T16:25:18.108Z,25.37
2019-04-16T16:27:47.428Z,22.73
2019-04-16T16:30:16.746Z,23.23
2019-04-16T16:32:46.534Z,24.47
2019-04-16T16:35:17.782Z,24.83
2019-04-16T16:37:47.744Z,26.87
2019-04-16T16:40:17.935Z,27.40
2019-04-16T16:42:47.702Z,25.13
2019-04-16T16:45:19.046Z,26.17
2019-04-16T16:47:48.503Z,23.97
2019-04-16T16:50:17.931Z,25.83
2019-04-16T16:53:06.375Z,23.33
2019-04-16T16:55:41.589Z,23.07
2019-04-16T16:58:29.894Z,24.70
2019-04-16T17:01:14.604Z,25.23
2019-04-16T17:03:52.569Z,23.97
2019-04-16T17:06:21.959Z,26.60
2019-04-16T17:08:51.523Z,24.70
2019-04-16T17:11:21.093Z,25.77
2019-04-16T17:13:50.667Z,24.30
2019-04-16T17:16:20.061Z,25.00
2019-04-16T17:18:49.389Z,23.13
2019-04-16T17:21:18.769Z,23.90
2019-04-16T17:23:48.239Z,22.50
2019-04-16T17:26:17.660Z,26.73
2019-04-16T17:28:47.091Z,24.27
2019-04-16T17:31:16.503Z,20.13
2019-04-16T17:33:45.908Z,19.17
2019-04-16T17:36:15.275Z,21.30
2019-04-16T17:38:44.653Z,23.60
2019-04-16T17:41:18.626Z,22.10
2019-04-16T17:44:13.211Z,19.57
2019-04-16T17:47:01.974Z,19.43
2019-04-16T17:49:49.528Z,23.20
2019-04-16T17:52:36.914Z,23.33
2019-04-16T17:55:11.197Z,20.53
2019-04-16T17:57:47.488Z,18.63
2019-04-16T18:00:42.035Z,19.70
2019-04-16T18:03:38.517Z,22.37
2019-04-16T18:06:24.655Z,25.37
2019-04-16T18:09:22.112Z,19.70
2019-04-16T18:12:13.346Z,19.90
2019-04-16T18:15:16.684Z,22.03
2019-04-16T18:17:54.024Z,20.03
2019-04-16T18:20:56.501Z,23.33
2019-04-16T18:23:27.559Z,19.70
2019-04-16T18:26:13.370Z,20.63
2019-04-16T18:28:53.612Z,20.40
2019-04-16T18:31:32.866Z,20.30
2019-04-16T18:34:19.751Z,18.33
2019-04-16T18:37:08.009Z,19.17
2019-04-16T18:39:45.626Z,22.73
2019-04-16T18:42:19.858Z,24.30
2019-04-16T18:45:00.737Z,19.37
2019-04-16T18:47:35.745Z,19.60
2019-04-16T18:50:09.284Z,19.90
2019-04-16T18:52:38.625Z,21.30
2019-04-16T18:55:08.690Z,19.57
2019-04-16T18:57:38.528Z,21.20
2019-04-16T19:00:28.611Z,16.40
2019-04-16T19:03:00.215Z,17.63
2019-04-16T19:05:29.662Z,18.60
2019-04-16T19:08:02.727Z,19.43
2019-04-16T19:10:34.226Z,16.43
2019-04-16T19:13:09.736Z,19.43
2019-04-16T19:15:34.150Z,21.77
2019-04-16T19:18:18.383Z,19.53
2019-04-16T19:20:34.546Z,14.33
2019-04-16T19:23:05.644Z,18.40
2019-04-16T19:25:34.958Z,15.90
2019-04-16T19:28:06.187Z,19.70
2019-04-16T19:30:35.733Z,14.73
2019-04-16T19:33:06.244Z,15.67
2019-04-16T19:35:35.889Z,14.10
2019-04-16T19:38:08.992Z,14.73
2019-04-16T19:40:38.375Z,15.00
2019-04-16T19:43:07.967Z,14.20
2019-04-16T19:45:37.417Z,13.17
2019-04-16T19:48:07.361Z,12.50
2019-04-16T19:50:37.320Z,11.90
2019-04-16T19:53:07.039Z,13.70
2019-04-16T19:55:36.562Z,12.90
2019-04-16T19:58:06.340Z,11.13
2019-04-16T20:00:36.046Z,12.07
2019-04-16T20:03:06.068Z,13.83
2019-04-16T20:05:35.687Z,11.87
2019-04-16T20:08:05.212Z,16.57
2019-04-16T20:10:34.554Z,11.87
2019-04-16T20:13:03.952Z,12.70
2019-04-16T20:15:33.513Z,15.27
2019-04-16T20:18:06.082Z,12.00
2019-04-16T20:20:34.102Z,13.47
2019-04-16T20:23:03.714Z,10.13
2019-04-16T20:25:33.246Z,12.37
2019-04-16T20:28:02.748Z,12.80
2019-04-16T20:30:32.106Z,10.63
2019-04-16T20:33:01.536Z,10.47
2019-04-16T20:35:30.925Z,11.17
2019-04-16T20:38:00.591Z,12.77
2019-04-16T20:40:29.950Z,13.43
2019-04-16T20:42:59.305Z,11.30
2019-04-16T20:45:28.997Z,11.43
2019-04-16T20:47:58.296Z,12.70
2019-04-16T20:50:27.586Z,12.10
2019-04-16T20:53:06.509Z,12.20
2019-04-16T20:55:33.748Z,14.20
2019-04-16T20:58:03.048Z,13.93
2019-04-16T21:00:34.090Z,13.50
2019-04-16T21:03:03.796Z,14.07
2019-04-16T21:05:35.742Z,12.30
2019-04-16T21:08:04.613Z,12.63
2019-04-16T21:10:35.646Z,12.37
2019-04-16T21:13:05.239Z,12.13
2019-04-16T21:15:34.552Z,10.93
2019-04-16T21:18:04.047Z,14.53
2019-04-16T21:20:33.358Z,12.60
2019-04-16T21:23:03.465Z,10.87
2019-04-16T21:25:33.363Z,22.33
2019-04-16T21:28:20.754Z,27.23
2019-04-16T21:30:53.394Z,23.07
2019-04-16T21:33:44.501Z,21.43
2019-04-16T21:36:21.503Z,13.80
2019-04-16T21:39:06.513Z,13.17
2019-04-16T21:41:35.793Z,11.03
2019-04-16T21:44:05.111Z,13.30
2019-04-16T21:46:34.345Z,11.43
2019-04-16T21:49:07.313Z,17.90
2019-04-16T21:51:34.637Z,14.10
2019-04-16T21:54:03.922Z,13.20
2019-04-16T21:56:33.189Z,11.60
2019-04-16T21:59:04.716Z,13.77
2019-04-16T22:01:41.539Z,13.53
2019-04-16T22:04:14.661Z,12.33
2019-04-16T22:06:44.243Z,16.00
2019-04-16T22:09:13.548Z,17.87
2019-04-16T22:11:44.267Z,16.20
2019-04-16T22:14:13.828Z,13.73
2019-04-16T22:16:43.074Z,14.20
2019-04-16T22:19:14.196Z,13.47
2019-04-16T22:21:43.828Z,14.50
2019-04-16T22:24:13.220Z,14.30
2019-04-16T22:26:42.470Z,14.33
2019-04-16T22:29:15.382Z,14.13
2019-04-16T22:31:42.622Z,12.80
2019-04-16T22:34:11.871Z,12.23
2019-04-16T22:36:41.050Z,14.43
2019-04-16T22:39:23.492Z,12.47
2019-04-16T22:42:02.080Z,14.37
2019-04-16T22:44:49.014Z,11.37
2019-04-16T22:47:21.762Z,14.10
2019-04-16T22:49:51.641Z,13.80
2019-04-16T22:52:22.026Z,11.83
2019-04-16T22:54:52.941Z,15.13
2019-04-16T22:57:22.260Z,13.43
2019-04-16T22:59:51.598Z,13.40
2019-04-16T23:02:23.524Z,15.07
2019-04-16T23:04:54.811Z,13.33
2019-04-16T23:07:23.790Z,11.07
2019-04-16T23:09:53.029Z,13.77
2019-04-16T23:12:27.181Z,11.97
2019-04-16T23:14:53.270Z,12.30
2019-04-16T23:17:25.260Z,12.50
2019-04-16T23:19:55.478Z,14.40
2019-04-16T23:22:24.943Z,13.10
2019-04-16T23:24:55.268Z,13.40
2019-04-16T23:27:25.173Z,12.67
2019-04-16T23:29:54.361Z,14.20
2019-04-16T23:32:27.477Z,11.30
2019-04-16T23:34:55.162Z,14.20
2019-04-16T23:37:24.409Z,16.63
2019-04-16T23:39:53.637Z,13.10
2019-04-16T23:42:22.885Z,14.20
2019-04-16T23:45:23.514Z,13.93
2019-04-16T23:48:07.429Z,12.27
2019-04-16T23:50:48.309Z,14.00
2019-04-16T23:53:45.481Z,14.00
2019-04-16T23:56:25.738Z,16.07
2019-04-16T23:59:13.502Z,15.70
